createdAt,value
2017-06-21T00:00:00.298Z,19.20
2017-06-21T00:02:29.616Z,19.10
2017-06-21T00:04:57.434Z,19.00
2017-06-21T00:07:27.192Z,18.90
2017-06-21T00:09:57.036Z,18.90
2017-06-21T00:12:26.658Z,18.80
2017-06-21T00:14:59.439Z,18.80
2017-06-21T00:17:32.043Z,18.80
2017-06-21T00:19:59.974Z,18.80
2017-06-21T00:22:29.893Z,18.80
2017-06-21T00:24:59.765Z,18.70
2017-06-21T00:27:29.383Z,18.70
2017-06-21T00:30:01.822Z,18.70
2017-06-21T00:32:34.700Z,18.70
2017-06-21T00:35:04.505Z,18.70
2017-06-21T00:37:34.344Z,18.70
2017-06-21T00:40:06.821Z,18.70
2017-06-21T00:42:41.493Z,18.60
2017-06-21T00:45:14.104Z,18.50
2017-06-21T00:47:44.285Z,18.50
2017-06-21T00:50:13.925Z,18.40
2017-06-21T00:52:46.944Z,18.40
2017-06-21T00:55:17.184Z,18.40
2017-06-21T00:57:43.413Z,18.30
2017-06-21T01:03:08.210Z,18.20
2017-06-21T01:05:34.535Z,18.10
2017-06-21T01:08:04.165Z,18.00
2017-06-21T01:10:34.058Z,17.90
2017-06-21T01:13:06.423Z,17.90
2017-06-21T01:15:47.635Z,17.80
2017-06-21T01:18:20.246Z,17.70
2017-06-21T01:20:46.477Z,17.60
2017-06-21T01:23:12.673Z,17.60
2017-06-21T01:25:38.897Z,17.60
2017-06-21T01:28:06.694Z,17.50
2017-06-21T01:30:36.309Z,17.50
2017-06-21T01:33:08.795Z,17.50
2017-06-21T01:35:41.379Z,17.50
2017-06-21T01:38:08.963Z,17.40
2017-06-21T01:40:41.527Z,17.40
2017-06-21T01:46:08.946Z,17.30
2017-06-21T01:48:41.234Z,17.30
2017-06-21T01:51:07.426Z,17.30
2017-06-21T01:53:33.676Z,17.30
2017-06-21T01:55:59.950Z,17.30
2017-06-21T01:58:26.166Z,17.20
2017-06-21T02:00:52.358Z,17.20
2017-06-21T02:03:18.558Z,17.30
2017-06-21T02:05:44.765Z,17.30
2017-06-21T02:08:17.181Z,17.30
2017-06-21T02:10:49.682Z,17.40
2017-06-21T02:13:21.861Z,17.40
2017-06-21T02:15:48.073Z,17.30
2017-06-21T02:18:17.857Z,17.30
2017-06-21T02:20:44.077Z,17.20
2017-06-21T02:23:10.295Z,17.20
2017-06-21T02:25:36.511Z,17.20
2017-06-21T02:28:02.719Z,17.20
2017-06-21T02:30:34.987Z,17.10
2017-06-21T02:33:05.019Z,17.10
2017-06-21T02:35:31.214Z,17.10
2017-06-21T02:38:00.982Z,17.00
2017-06-21T02:40:27.191Z,17.00
2017-06-21T02:42:53.423Z,16.90
2017-06-21T02:45:19.674Z,16.90
2017-06-21T02:47:51.816Z,16.90
2017-06-21T02:50:21.710Z,16.80
2017-06-21T02:52:54.202Z,16.80
2017-06-21T02:55:20.408Z,16.80
2017-06-21T03:00:43.063Z,16.70
2017-06-21T03:03:09.273Z,16.60
2017-06-21T03:05:38.973Z,16.60
2017-06-21T03:08:11.227Z,16.60
2017-06-21T03:10:37.469Z,16.60
2017-06-21T03:13:03.694Z,16.60
2017-06-21T03:15:30.893Z,16.50
2017-06-21T03:17:57.121Z,16.60
2017-06-21T03:20:23.344Z,16.60
2017-06-21T03:22:49.695Z,16.60
2017-06-21T03:25:15.907Z,16.60
2017-06-21T03:27:42.133Z,16.70
2017-06-21T03:30:12.247Z,16.70
2017-06-21T03:35:37.747Z,16.80
2017-06-21T03:38:03.951Z,16.90
2017-06-21T03:40:30.190Z,17.00
2017-06-21T03:42:56.470Z,17.00
2017-06-21T03:45:26.586Z,17.10
2017-06-21T03:48:06.642Z,17.10
2017-06-21T03:50:36.638Z,17.10
2017-06-21T03:53:06.364Z,17.20
2017-06-21T03:55:36.278Z,17.30
2017-06-21T03:58:09.980Z,17.70
2017-06-21T04:00:43.426Z,18.20
2017-06-21T04:03:12.888Z,18.70
2017-06-21T04:05:49.047Z,19.30
2017-06-21T04:25:57.837Z,23.80
2017-06-21T04:28:44.001Z,24.50
2017-06-21T04:31:10.554Z,25.00
2017-06-21T04:45:22.746Z,26.60
2017-06-21T04:47:49.182Z,27.10
2017-06-21T04:50:15.435Z,27.50
2017-06-21T04:52:43.815Z,27.90
2017-06-21T04:55:10.386Z,28.30
2017-06-21T05:06:24.405Z,29.70
2017-06-21T05:40:33.378Z,31.70
2017-06-21T06:14:43.983Z,37.50
2017-06-21T06:49:07.469Z,42.20
2017-06-21T06:51:33.739Z,42.50
2017-06-21T06:54:00.951Z,42.60
2017-06-21T06:56:27.429Z,42.50
2017-06-21T06:59:00.413Z,42.50
2017-06-21T07:01:26.721Z,42.80
2017-06-21T07:04:02.881Z,42.90
2017-06-21T07:06:38.463Z,43.10
2017-06-21T07:09:14.985Z,43.30
2017-06-21T07:11:41.275Z,43.50
2017-06-21T07:14:14.627Z,43.70
2017-06-21T07:16:40.876Z,43.90
2017-06-21T07:19:07.094Z,44.00
2017-06-21T07:21:33.346Z,44.10
2017-06-21T07:23:59.720Z,44.00
2017-06-21T07:26:25.990Z,44.20
2017-06-21T07:28:52.208Z,44.20
2017-06-21T07:31:18.432Z,44.20
2017-06-21T07:33:44.636Z,44.30
2017-06-21T07:36:10.848Z,44.40
2017-06-21T07:38:37.065Z,44.40
2017-06-21T07:41:03.380Z,44.30
2017-06-21T07:43:35.659Z,44.30
2017-06-21T07:46:01.874Z,44.30
2017-06-21T07:48:28.079Z,44.30
2017-06-21T07:50:54.325Z,44.30
2017-06-21T07:53:20.538Z,44.30
2017-06-21T07:55:46.855Z,44.30
2017-06-21T07:58:13.093Z,44.10
2017-06-21T08:00:39.318Z,44.20
2017-06-21T08:03:05.533Z,44.10
2017-06-21T08:05:31.793Z,44.10
2017-06-21T08:07:58.037Z,44.10
2017-06-21T08:10:52.086Z,44.10
2017-06-21T09:42:37.231Z,29.20
2017-06-21T10:42:48.827Z,28.00
2017-06-21T11:14:22.417Z,27.70
2017-06-21T12:26:10.187Z,28.20
2017-06-21T12:51:56.626Z,28.40
2017-06-21T14:32:20.199Z,28.00
2017-06-21T17:21:52.131Z,25.10
2017-06-21T18:04:38.043Z,23.80
2017-06-21T18:07:04.221Z,23.60
2017-06-21T18:09:30.418Z,23.50
2017-06-21T18:11:56.634Z,23.50
2017-06-21T18:14:22.874Z,23.40
2017-06-21T18:16:49.088Z,23.30
2017-06-21T18:19:15.326Z,23.30
2017-06-21T18:21:41.548Z,23.20
2017-06-21T18:24:07.750Z,23.10
2017-06-21T18:26:33.988Z,23.10
2017-06-21T18:29:00.217Z,23.00
2017-06-21T18:31:26.408Z,22.90
2017-06-21T18:33:52.973Z,22.80
2017-06-21T18:36:19.201Z,22.70
2017-06-21T18:38:45.417Z,22.70
2017-06-21T18:41:11.629Z,22.60
2017-06-21T18:43:37.863Z,22.50
2017-06-21T18:46:04.231Z,22.40
2017-06-21T18:48:30.467Z,22.30
2017-06-21T18:50:56.726Z,22.10
2017-06-21T18:53:24.101Z,22.00
2017-06-21T18:55:50.745Z,21.90
2017-06-21T18:58:16.963Z,21.80
2017-06-21T19:00:43.138Z,21.70
2017-06-21T19:03:10.393Z,21.60
2017-06-21T19:05:36.636Z,21.40
2017-06-21T19:08:02.962Z,21.30
2017-06-21T19:10:29.193Z,21.10
2017-06-21T19:12:55.440Z,21.00
2017-06-21T19:15:21.710Z,21.00
2017-06-21T19:17:48.046Z,20.80
2017-06-21T19:20:14.248Z,20.70
2017-06-21T19:22:40.471Z,20.60
2017-06-21T19:25:07.628Z,20.50
2017-06-21T19:27:33.885Z,20.40
2017-06-21T19:30:00.090Z,20.30
2017-06-21T19:32:26.301Z,20.20
2017-06-21T19:34:52.526Z,20.20
2017-06-21T19:37:18.832Z,20.10
2017-06-21T19:39:45.027Z,20.00
2017-06-21T19:42:11.404Z,19.80
2017-06-21T19:44:45.679Z,19.70
2017-06-21T19:47:19.413Z,19.60
2017-06-21T19:49:53.223Z,19.50
2017-06-21T19:52:26.899Z,19.40
2017-06-21T19:55:00.843Z,19.40
2017-06-21T19:57:34.627Z,19.40
2017-06-21T20:00:07.392Z,19.40
2017-06-21T20:02:37.276Z,19.30
2017-06-21T20:05:10.855Z,19.20
2017-06-21T20:07:44.879Z,19.10
2017-06-21T20:10:17.581Z,19.10
2017-06-21T20:12:48.379Z,19.00
2017-06-21T20:15:22.108Z,18.90
2017-06-21T20:23:42.360Z,18.60
2017-06-21T20:26:16.140Z,18.50
2017-06-21T20:28:50.092Z,18.40
2017-06-21T20:31:23.959Z,18.40
2017-06-21T20:33:57.757Z,18.40
2017-06-21T20:36:31.334Z,18.30
2017-06-21T20:39:02.294Z,18.30
2017-06-21T20:41:35.946Z,18.30
2017-06-21T20:44:10.365Z,18.20
2017-06-21T20:46:44.764Z,18.10
2017-06-21T20:49:18.901Z,18.00
2017-06-21T20:51:53.434Z,17.90
2017-06-21T20:54:24.502Z,17.80
2017-06-21T20:56:57.998Z,17.70
2017-06-21T20:59:28.858Z,17.70
2017-06-21T21:01:59.813Z,17.70
2017-06-21T21:04:30.662Z,17.70
2017-06-21T21:07:03.162Z,17.60
2017-06-21T21:09:34.139Z,17.60
2017-06-21T21:12:05.677Z,17.60
2017-06-21T21:14:36.850Z,17.50
2017-06-21T21:17:07.263Z,17.40
2017-06-21T21:19:38.318Z,17.30
2017-06-21T21:22:06.482Z,17.30
2017-06-21T21:24:37.440Z,17.20
2017-06-21T21:27:07.243Z,17.10
2017-06-21T21:29:42.875Z,17.10
2017-06-21T21:32:11.189Z,17.00
2017-06-21T21:34:44.109Z,16.90
2017-06-21T21:37:13.816Z,16.90
2017-06-21T21:39:41.583Z,16.90
2017-06-21T21:42:09.275Z,16.80
2017-06-21T21:44:37.231Z,16.80
2017-06-21T21:47:06.843Z,16.70
2017-06-21T21:49:36.706Z,16.70
2017-06-21T21:52:06.661Z,16.70
2017-06-21T21:54:39.210Z,16.60
2017-06-21T21:57:08.973Z,16.50
2017-06-21T21:59:36.560Z,16.60
2017-06-21T22:02:06.571Z,16.60
2017-06-21T22:04:36.784Z,16.60
2017-06-21T22:07:10.401Z,16.60
2017-06-21T22:09:38.700Z,16.50
2017-06-21T22:12:08.498Z,16.40
2017-06-21T22:14:38.404Z,16.40
2017-06-21T22:17:11.040Z,16.40
2017-06-21T22:19:41.387Z,16.30
2017-06-21T22:22:11.714Z,16.30
2017-06-21T22:24:45.375Z,16.30
2017-06-21T22:27:15.239Z,16.30
2017-06-21T22:29:44.983Z,16.20
2017-06-21T22:32:16.059Z,16.20
2017-06-21T22:34:45.807Z,16.20
2017-06-21T22:37:16.535Z,16.10
2017-06-21T22:39:46.531Z,16.10
2017-06-21T22:42:20.075Z,16.00
2017-06-21T22:44:53.811Z,16.00
2017-06-21T22:47:26.443Z,16.00
2017-06-21T22:49:56.546Z,16.00
2017-06-21T22:52:26.017Z,15.90
2017-06-21T22:54:55.714Z,15.90
2017-06-21T22:57:25.554Z,15.90
2017-06-21T22:59:55.494Z,15.80
2017-06-21T23:02:25.958Z,15.80
2017-06-21T23:04:56.468Z,15.80
2017-06-21T23:07:26.166Z,15.80
2017-06-21T23:09:55.869Z,15.70
2017-06-21T23:12:26.460Z,15.70
2017-06-21T23:14:54.349Z,15.70
2017-06-21T23:17:24.609Z,15.70
2017-06-21T23:19:52.649Z,15.70
2017-06-21T23:22:22.559Z,15.70
2017-06-21T23:24:52.355Z,15.70
2017-06-21T23:27:22.177Z,15.60
2017-06-21T23:29:52.027Z,15.70
2017-06-21T23:32:22.955Z,15.70
2017-06-21T23:34:52.954Z,15.70
2017-06-21T23:37:35.543Z,16.50
2017-06-21T23:40:05.854Z,15.70
2017-06-21T23:42:35.671Z,15.60
2017-06-21T23:45:08.383Z,15.60
2017-06-21T23:47:38.610Z,15.60
2017-06-21T23:50:08.276Z,15.60
2017-06-21T23:52:38.166Z,15.50
2017-06-21T23:55:08.018Z,15.50
2017-06-21T23:57:38.943Z,15.40
